Latest Coastal Weather Observations for Hopetoun North

IDW60701

Issued at 11:03 am WST Thursday 24 August 2017 (issued every 10 minutes, with the page automatically refreshed every 10 minutes)

About coastal observations | Map of coastal stations | Coastal observations for WA | Marine services | Other Formats
Station Details ID: 009961 Name: HOPETOUN NORTH Lat: -33.93 Lon: 120.13 Height: 26.0 m
Data from the previous 72 hours. | See also: Recent months at Hopetoun North
Date/Time
WST
Temp
°C
Wind Pressure Rain since
9am
mm
Weather Cloud Vis
km
Sea
Height
m
Swell
Dir  Spd
kts
Gust
kts
hPa Trend Height
m
Period
s
Dir
24/11:00am 16.6 NE 6 10 1030.6 - 0.0 - - - - - - -
24/10:30am 15.5 NE 9 16 1030.7 - 0.0 - - - - - - -
24/10:00am 14.6 NNE 10 14 1030.8 - 0.0 - - - - - - -
24/09:30am 14.5 NE 7 11 1030.9 - 0.0 - - - - - - -
24/09:00am 12.9 NNE 6 8 1031.0 - 1.8 - - - - - - -
24/08:30am 11.1 NNE 5 7 1031.2 - 1.8 - - - - - - -
24/08:00am 10.3 N 4 6 1031.0 - 1.8 - - - - - - -
24/07:30am 8.8 N 4 7 1030.8 - 1.8 - - - - - - -
24/07:00am 7.0 NNE 4 5 1030.4 - 1.8 - - - - - - -
24/06:30am 7.1 N 4 5 1030.3 - 1.8 - - - - - - -
24/06:00am 7.5 N 5 6 1030.2 - 1.8 - - - - - - -
24/05:30am 7.5 N 5 6 1030.1 - 1.8 - - - - - - -
24/05:00am 7.5 N 5 7 1030.0 - 1.8 - - - - - - -
24/04:30am 7.8 NNE 4 5 1029.8 - 1.8 - - - - - - -
24/04:00am 7.8 NNE 6 7 1029.6 - 1.8 - - - - - - -
24/03:30am 8.0 NNE 5 7 1029.5 - 1.8 - - - - - - -
24/03:00am 7.6 NE 2 3 1029.4 - 1.8 - - - - - - -
24/02:30am 8.4 NE 2 3 1029.6 - 1.8 - - - - - - -
24/02:00am 8.6 NNE 3 5 1029.8 - 1.8 - - - - - - -
24/01:30am 9.2 CALM 0 0 1029.8 - 1.8 - - - - - - -
24/01:00am 9.3 NE 4 5 1029.9 - 1.8 - - - - - - -
24/12:30am 10.0 NE 3 4 1030.0 - 1.8 - - - - - - -
24/12:00am 11.0 NNE 2 4 1030.1 - 1.8 - - - - - - -
 
Date/Time
WST
Temp
°C
Wind Pressure Rain since
9am
mm
Weather Cloud Vis
km
Sea
Height
m
Swell
Dir  Spd
kts
Gust
kts
hPa Trend Height
m
Period
s
Dir
23/11:30pm 11.3 NNE 3 4 1030.3 - 1.8 - - - - - - -
23/11:00pm 11.4 NNE 2 3 1030.4 - 1.8 - - - - - - -
23/10:30pm 11.6 NNE 3 4 1030.4 - 1.8 - - - - - - -
23/10:00pm 11.6 NNE 3 4 1030.5 - 1.8 - - - - - - -
23/09:30pm 11.6 NE 1 1 1030.4 - 1.8 - - - - - - -
23/09:00pm 11.6 NE 3 3 1030.4 - 1.8 - - - - - - -
23/08:30pm 11.6 NE 2 3 1030.2 - 1.8 - - - - - - -
23/08:00pm 11.7 NE 3 3 1030.2 - 1.8 - - - - - - -
23/07:30pm 12.2 ESE 4 5 1029.9 - 1.8 - - - - - - -
23/07:00pm 12.2 E 4 4 1029.6 - 1.8 - - - - - - -
23/06:30pm 12.5 ESE 4 6 1029.3 - 1.8 - - - - - - -
23/06:00pm 12.4 ESE 4 7 1029.1 - 1.8 - - - - - - -
23/05:30pm 12.6 ESE 4 5 1028.9 - 1.8 - - - - - - -
23/05:00pm 13.0 SE 5 6 1028.7 - 1.8 - - - - - - -
23/04:30pm 13.1 SSE 5 7 1028.6 - 1.8 - - - - - - -
23/04:00pm 14.4 S 7 10 1028.5 - 1.8 - - - - - - -
23/03:30pm 13.9 S 8 13 1028.4 - 1.8 - - - - - - -
23/03:00pm 14.0 SSE 5 7 1028.3 - 1.8 - - - - - - -
23/02:30pm 13.7 SSE 6 8 1028.1 - 1.8 - - - - - - -
23/02:00pm 14.5 CALM 0 0 1027.9 - 1.8 - - - - - - -
23/01:30pm 13.4 WNW 2 4 1028.0 - 1.8 - - - - - - -
23/01:00pm 12.0 SSW 3 4 1028.4 - 1.8 - - - - - - -
23/12:30pm 12.4 WSW 5 7 1028.5 - 1.6 - - - - - - -
23/12:00pm 12.0 W 7 9 1028.8 - 1.2 Rain - - - - - -
23/11:30am 12.1 SW 6 8 1029.0 - 1.0 - - - - - - -
23/11:00am 12.4 SSW 3 4 1029.2 - 0.8 - - - - - - -
23/10:30am 12.5 WSW 2 4 1029.1 - 0.4 - - - - - - -
23/10:00am 13.0 NW 4 6 1029.1 - 0.0 - - - - - - -
23/09:30am 12.8 WNW 4 5 1028.9 - 0.0 - - - - - - -
23/09:00am 11.9 N 3 4 1028.7 - 2.2 - - - - - - -
23/08:30am 11.8 NNE 3 5 1028.4 - 2.2 - - - - - - -
23/08:00am 11.6 N 2 3 1028.0 - 2.2 - - - - - - -
23/07:30am 11.1 N 2 4 1027.5 - 2.2 - - - - - - -
23/07:00am 10.9 WSW 2 2 1027.2 - 2.0 - - - - - - -
23/06:30am 10.9 S 7 10 1026.9 - 1.6 - - - - - - -
23/06:00am 11.2 SW 1 3 1026.6 - 0.8 Rain - - - - - -
23/05:30am 11.1 W 1 3 1026.1 - 0.0 - - - - - - -
23/05:00am 10.7 NW 2 3 1025.7 - 0.0 - - - - - - -
23/04:30am 10.5 NW 3 4 1025.4 - 0.0 - - - - - - -
23/04:00am 10.1 WNW 3 5 1025.4 - 0.0 - - - - - - -
23/03:30am 9.9 NW 4 6 1025.1 - 0.0 - - - - - - -
23/03:00am 9.9 NNE 3 3 1025.0 - 0.0 - - - - - - -
23/02:30am 9.7 ENE 4 6 1025.2 - 0.0 - - - - - - -
23/02:00am 11.4 S 3 4 1025.2 - 0.0 - - - - - - -
23/01:30am 12.1 S 2 4 1025.2 - 0.0 - - - - - - -
23/01:00am 12.3 S 2 3 1025.3 - 0.0 - - - - - - -
23/12:30am 12.7 S 3 4 1025.2 - 0.0 - - - - - - -
23/12:00am 13.1 S 4 5 1025.2 - 0.0 - - - - - - -
 
Date/Time
WST
Temp
°C
Wind Pressure Rain since
9am
mm
Weather Cloud Vis
km
Sea
Height
m
Swell
Dir  Spd
kts
Gust
kts
hPa Trend Height
m
Period
s
Dir
22/11:30pm 13.8 SSW 5 10 1025.2 - 0.0 - - - - - - -
22/11:00pm 13.8 SSW 5 8 1025.0 - 0.0 - - - - - - -
22/10:30pm 13.9 SSW 6 10 1025.0 - 0.0 - - - - - - -
22/10:00pm 14.0 SSW 7 9 1024.9 - 0.0 - - - - - - -
22/09:30pm 14.1 SSW 8 13 1024.7 - 0.0 - - - - - - -
22/09:00pm 14.2 S 7 12 1024.4 - 0.0 - - - - - - -
22/08:30pm 14.1 SSW 6 10 1024.3 - 0.0 - - - - - - -
22/08:00pm 14.2 SSW 9 13 1024.0 - 0.0 - - - - - - -
22/07:30pm 14.2 SSW 10 14 1023.5 - 0.0 - - - - - - -
22/07:00pm 14.2 SSW 10 15 1023.2 - 0.0 - - - - - - -
22/06:30pm 14.4 S 9 13 1022.6 - 0.0 - - - - - - -
22/06:00pm 13.9 SSW 8 12 1022.2 - 0.0 - - - - - - -
22/05:30pm 13.7 SSW 13 17 1021.8 - 0.0 - - - - - - -
22/05:00pm 14.2 S 12 16 1021.5 - 0.0 - - - - - - -
22/04:30pm 14.7 SSW 9 13 1021.2 - 0.0 - - - - - - -
22/04:00pm 14.7 SSW 11 14 1020.9 - 0.0 - - - - - - -
22/03:30pm 14.4 SW 12 17 1020.6 - 0.0 - - - - - - -
22/03:00pm 15.7 SSW 10 14 1020.2 - 0.0 - - - - - - -
22/02:30pm 16.4 SSW 11 15 1019.7 - 0.0 - - - - - - -
22/02:00pm 16.5 SW 8 11 1019.6 - 0.0 - - - - - - -
22/01:30pm 16.4 SW 9 12 1019.5 - 0.0 - - - - - - -
22/01:00pm 17.1 SW 9 13 1019.7 - 0.0 - - - - - - -
22/12:30pm 17.4 SSW 10 13 1019.9 - 0.0 - - - - - - -
22/12:00pm 17.0 SW 9 13 1019.8 - 0.0 - - - - - - -
22/11:30am 17.1 SW 8 11 1020.1 - 0.0 - - - - - - -
22/11:00am 17.1 WSW 7 10 1020.3 - 0.0 - - - - - - -
22/10:30am 16.2 WSW 7 11 1020.5 - 0.0 - - - - - - -
22/10:00am 15.7 WSW 8 13 1020.6 - 0.0 - - - - - - -
22/09:30am 14.8 W 8 12 1020.5 - 0.0 - - - - - - -
22/09:00am 13.9 WNW 7 9 1020.5 - 0.0 - - - - - - -
22/08:30am 13.0 W 6 9 1020.4 - 0.0 - - - - - - -
22/08:00am 11.8 WNW 6 8 1020.3 - 0.0 - - - - - - -
22/07:30am 10.1 NNW 4 5 1020.1 - 0.0 - - - - - - -
22/07:00am 8.1 NNW 4 6 1019.7 - 0.0 - - - - - - -
22/06:30am 7.9 N 4 6 1019.2 - 0.0 - - - - - - -
22/06:00am 7.9 NNE 5 6 1019.1 - 0.0 - - - - - - -
22/05:30am 9.6 NW 4 7 1018.5 - 0.0 - - - - - - -
22/05:00am 9.9 NW 5 8 1018.5 - 0.0 - - - - - - -
22/04:30am 9.6 NW 4 6 1018.4 - 0.0 - - - - - - -
22/04:00am 10.5 WNW 5 7 1018.4 - 0.0 - - - - - - -
22/03:30am 11.3 NNW 5 6 1018.5 - 0.0 - - - - - - -
22/03:00am 11.7 NW 4 5 1018.5 - 0.0 - - - - - - -
22/02:30am 11.2 NNW 2 3 1018.5 - 0.0 - - - - - - -
22/02:00am 11.8 W 4 7 1018.8 - 0.0 - - - - - - -
22/01:30am 11.9 NW 3 4 1018.9 - 0.0 - - - - - - -
22/01:00am 12.0 NNW 2 3 1019.1 - 0.0 - - - - - - -
22/12:30am 12.3 NNW 3 4 1019.0 - 0.0 - - - - - - -
22/12:00am 12.2 NNW 3 4 1019.1 - 0.0 - - - - - - -
 
Date/Time
WST
Temp
°C
Wind Pressure Rain since
9am
mm
Weather Cloud Vis
km
Sea
Height
m
Swell
Dir  Spd
kts
Gust
kts
hPa Trend Height
m
Period
s
Dir
21/11:30pm 12.0 N 3 4 1019.2 - 0.0 - - - - - - -
21/11:00pm 12.0 NNW 3 4 1019.4 - 0.0 - - - - - - -
21/10:30pm 11.7 NNW 4 5 1019.6 - 0.0 - - - - - - -
21/10:00pm 11.9 NNW 4 5 1019.7 - 0.0 - - - - - - -
21/09:30pm 11.6 NNW 4 5 1019.7 - 0.0 - - - - - - -
21/09:00pm 12.2 NNW 3 5 1019.7 - 0.0 - - - - - - -
21/08:30pm 12.2 NNW 3 5 1019.5 - 0.0 - - - - - - -
21/08:00pm 12.0 NNW 3 3 1019.4 - 0.0 - - - - - - -
21/07:30pm 13.0 WNW 4 6 1019.3 - 0.0 - - - - - - -
21/07:00pm 13.7 WNW 5 6 1019.1 - 0.0 - - - - - - -
21/06:30pm 14.1 WNW 4 5 1018.8 - 0.0 - - - - - - -
21/06:00pm 14.4 WNW 4 5 1018.6 - 0.0 - - - - - - -
21/05:30pm 14.9 WNW 5 9 1018.6 - 0.0 - - - - - - -
21/05:00pm 15.2 W 5 7 1018.3 - 0.0 - - - - - - -
21/04:30pm 15.5 W 7 10 1018.4 - 0.0 - - - - - - -
21/04:00pm 15.7 W 9 14 1018.3 - 0.0 - - - - - - -
21/03:30pm 16.3 WNW 6 10 1018.2 - 0.0 - - - - - - -
21/03:00pm 16.1 W 9 14 1018.2 - 0.0 - - - - - - -
21/02:30pm 16.0 WSW 8 12 1018.3 - 0.0 - - - - - - -
21/02:00pm 16.2 W 10 16 1018.4 - 0.0 - - - - - - -
21/01:30pm 16.3 W 12 18 1018.7 - 0.0 - - - - - - -
21/01:00pm 16.1 WNW 11 19 1019.1 - 0.0 - - - - - - -
21/12:30pm 16.2 W 11 17 1019.7 - 0.0 - - - - - - -
21/12:00pm 16.3 WNW 12 17 1020.2 - 0.0 - - - - - - -
21/11:30am 15.5 W 10 15 1020.5 - 0.0 - - - - - - -

Other Formats:

Comma delimited format used in spreadsheet applications
http://www.bom.gov.au/fwo/IDW60701/IDW60701.95635.axf

JavaScript Object Notation format (JSON) in row-major order
http://www.bom.gov.au/fwo/IDW60701/IDW60701.95635.json